Time;durP1;ratioP1;P1;durP2;ratioP2;P2;SDS_P1;SDS_P2;PMS_P1;PMS_P2;Temp;Humidity;BMP_temperature;BMP_pressure;BME280_temperature;BME280_humidity;BME280_pressure;Samples;Min_cycle;Max_cycle;Signal;HPM_P1;HPM_P2
2021/06/16 00:01:37;;;;;;;9.23;5.67;;;;;;;13.28;100.00;93190.22;1855348;77;21805;-82
2021/06/16 00:04:05;;;;;;;8.35;7.45;;;;;;;13.27;100.00;93187.89;1854853;77;21048;-83
2021/06/16 00:06:33;;;;;;;6.83;5.70;;;;;;;13.26;100.00;93185.75;1855542;75;21029;-80
2021/06/16 00:09:00;;;;;;;10.13;7.20;;;;;;;13.25;100.00;93177.99;1855662;77;21922;-79
2021/06/16 00:11:26;;;;;;;6.35;5.65;;;;;;;13.21;100.00;93180.75;1855884;75;21140;-81
2021/06/16 00:13:53;;;;;;;6.65;6.05;;;;;;;13.22;100.00;93180.16;1855754;77;21083;-83
2021/06/16 00:16:19;;;;;;;6.17;5.08;;;;;;;13.22;100.00;93185.62;1823340;77;20942;-82
2021/06/16 00:18:46;;;;;;;5.05;4.65;;;;;;;13.24;100.00;93182.69;1812743;77;21065;-82
2021/06/16 00:21:13;;;;;;;5.97;4.85;;;;;;;13.25;100.00;93180.13;1814720;78;21512;-83
2021/06/16 00:23:40;;;;;;;6.35;5.30;;;;;;;13.24;100.00;93185.41;1821979;78;21112;-80
2021/06/16 00:26:06;;;;;;;4.87;4.45;;;;;;;13.26;100.00;93187.72;1821123;78;21113;-85
2021/06/16 00:28:32;;;;;;;7.25;5.37;;;;;;;13.27;100.00;93189.25;1818914;78;26615;-82
2021/06/16 00:30:58;;;;;;;5.03;4.53;;;;;;;13.29;100.00;93183.56;1815119;78;21045;-86
2021/06/16 00:33:26;;;;;;;6.85;5.00;;;;;;;13.30;100.00;93186.45;1814640;78;21575;-81
2021/06/16 00:35:53;;;;;;;5.25;4.72;;;;;;;13.32;100.00;93184.69;1817356;78;21009;-82
2021/06/16 00:38:19;;;;;;;5.28;4.78;;;;;;;13.30;100.00;93196.02;1824686;77;21170;-82
2021/06/16 00:40:47;;;;;;;8.35;6.17;;;;;;;13.21;100.00;93188.95;1862224;77;21396;-82
2021/06/16 00:43:13;;;;;;;6.37;5.03;;;;;;;13.13;100.00;93192.39;1862199;77;21072;-84
2021/06/16 00:45:40;;;;;;;4.58;4.17;;;;;;;13.07;100.00;93189.95;1857154;75;21017;-81
2021/06/16 00:48:07;;;;;;;5.25;4.80;;;;;;;13.05;100.00;93196.44;1856228;77;21013;-80
2021/06/16 00:50:36;;;;;;;11.85;5.00;;;;;;;13.03;100.00;93193.34;1851978;77;21081;-84
2021/06/16 00:53:02;;;;;;;5.42;4.85;;;;;;;13.07;100.00;93198.14;1820987;78;21013;-83
2021/06/16 00:55:29;;;;;;;4.90;4.50;;;;;;;13.11;100.00;93196.12;1852486;77;21139;-83
2021/06/16 00:57:55;;;;;;;5.30;4.90;;;;;;;13.13;100.00;93188.90;1855699;75;21150;-82
2021/06/16 01:00:29;;;;;;;5.17;4.35;;;;;;;13.17;100.00;93194.30;1854975;77;21100;-83
2021/06/16 01:03:08;;;;;;;5.80;4.78;;;;;;;13.19;100.00;93197.36;1847229;77;21869;-82
2021/06/16 01:05:42;;;;;;;6.67;4.50;;;;;;;13.24;100.00;93198.27;1822899;77;21018;-81
2021/06/16 01:08:08;;;;;;;4.75;4.30;;;;;;;13.27;100.00;93199.58;1818675;77;20990;-80
2021/06/16 01:10:38;;;;;;;5.37;4.22;;;;;;;13.29;100.00;93197.21;1856790;77;21461;-80
2021/06/16 01:13:51;;;;;;;7.42;4.85;;;;;;;13.32;100.00;93203.81;1856539;77;21045;-80
2021/06/16 01:16:25;;;;;;;5.20;4.17;;;;;;;13.30;100.00;93201.48;1828368;77;21089;-83
2021/06/16 01:18:56;;;;;;;5.35;3.90;;;;;;;13.28;100.00;93201.73;1842899;77;21041;-81
2021/06/16 01:21:24;;;;;;;4.28;3.83;;;;;;;13.32;100.00;93204.58;1842433;77;21056;-83
2021/06/16 01:24:06;;;;;;;4.25;3.62;;;;;;;13.34;100.00;93209.61;1818911;78;21094;-82
2021/06/16 01:26:37;;;;;;;6.00;3.90;;;;;;;13.38;100.00;93213.05;1809862;78;21025;-80
2021/06/16 01:29:15;;;;;;;4.53;4.12;;;;;;;13.40;100.00;93204.45;1817487;78;21098;-80
2021/06/16 01:31:41;;;;;;;4.17;3.80;;;;;;;13.39;100.00;93199.59;1840622;76;21047;-85
2021/06/16 01:34:09;;;;;;;4.25;3.95;;;;;;;13.39;100.00;93207.78;1856030;77;21750;-81
2021/06/16 01:36:37;;;;;;;4.85;4.45;;;;;;;13.35;100.00;93201.58;1855456;77;21049;-83
2021/06/16 01:39:08;;;;;;;4.70;4.30;;;;;;;13.31;100.00;93207.14;1855368;76;21064;-83
2021/06/16 01:41:36;;;;;;;7.35;4.25;;;;;;;13.30;100.00;93207.53;1855041;77;21547;-80
2021/06/16 01:44:05;;;;;;;4.33;3.95;;;;;;;13.31;100.00;93208.50;1820624;78;21489;-83
2021/06/16 01:46:31;;;;;;;4.30;3.90;;;;;;;13.32;100.00;93210.03;1848636;77;21045;-85
2021/06/16 01:48:58;;;;;;;7.28;4.00;;;;;;;13.35;100.00;93205.11;1855193;77;21021;-80
2021/06/16 01:51:26;;;;;;;4.80;4.40;;;;;;;13.39;100.00;93205.05;1855217;76;21631;-80
2021/06/16 01:53:52;;;;;;;6.17;4.70;;;;;;;13.40;100.00;93207.95;1835009;77;21128;-79
2021/06/16 01:56:19;;;;;;;5.03;4.62;;;;;;;13.42;100.00;93211.61;1832965;77;21068;-82
2021/06/16 01:58:47;;;;;;;4.75;4.35;;;;;;;13.42;100.00;93217.08;1816396;77;21085;-82
2021/06/16 02:01:15;;;;;;;5.30;4.50;;;;;;;13.40;100.00;93218.11;1813672;79;21031;-80
2021/06/16 02:03:41;;;;;;;6.83;4.42;;;;;;;13.39;99.81;93221.44;1788288;77;21049;-79
2021/06/16 02:06:08;;;;;;;4.50;3.85;;;;;;;13.39;99.56;93232.92;1758495;80;21552;-80
2021/06/16 02:08:36;;;;;;;5.85;3.85;;;;;;;13.35;99.26;93228.89;1777770;80;21054;-82
2021/06/16 02:11:03;;;;;;;5.22;3.67;;;;;;;13.26;99.29;93229.44;1840500;77;21019;-79
2021/06/16 02:13:40;;;;;;;8.08;3.47;;;;;;;13.19;99.45;93230.89;1794856;78;21117;-82
2021/06/16 02:16:09;;;;;;;3.92;3.60;;;;;;;13.11;99.93;93228.11;1846698;77;21551;-82
2021/06/16 02:18:50;;;;;;;5.05;3.45;;;;;;;13.10;100.00;93230.67;1825795;77;21032;-80
2021/06/16 02:21:19;;;;;;;4.03;3.62;;;;;;;13.07;100.00;93226.80;1810752;78;21034;-80
2021/06/16 02:23:45;;;;;;;4.80;3.60;;;;;;;13.07;100.00;93228.77;1761776;78;21043;-82
2021/06/16 02:26:14;;;;;;;6.65;3.40;;;;;;;13.05;100.00;93230.55;1783104;79;21077;-79
2021/06/16 02:28:42;;;;;;;4.95;3.27;;;;;;;13.05;100.00;93229.19;1817258;78;21037;-80
2021/06/16 02:31:08;;;;;;;4.10;3.40;;;;;;;13.05;100.00;93231.92;1820175;78;21102;-81
2021/06/16 02:33:35;;;;;;;6.40;3.67;;;;;;;13.06;100.00;93231.33;1822264;78;22191;-79
2021/06/16 02:36:03;;;;;;;3.62;3.33;;;;;;;13.07;100.00;93234.99;1822222;78;21269;-81
2021/06/16 02:38:31;;;;;;;5.72;2.80;;;;;;;13.08;100.00;93232.44;1823179;78;21034;-83
2021/06/16 02:41:00;;;;;;;3.90;2.87;;;;;;;13.11;100.00;93230.84;1845374;77;21092;-83
2021/06/16 02:43:27;;;;;;;4.72;3.02;;;;;;;13.13;100.00;93230.61;1853567;76;21056;-84
2021/06/16 02:45:54;;;;;;;4.10;3.12;;;;;;;13.15;100.00;93234.28;1855784;77;21095;-81
2021/06/16 02:48:22;;;;;;;3.42;3.00;;;;;;;13.15;100.00;93237.01;1812669;77;21623;-82
2021/06/16 02:50:52;;;;;;;6.50;3.40;;;;;;;13.15;99.98;93234.28;1821058;78;21005;-80
2021/06/16 02:53:23;;;;;;;4.55;3.30;;;;;;;13.17;99.92;93233.88;1817892;77;21164;-82
2021/06/16 02:55:53;;;;;;;4.65;3.15;;;;;;;13.20;100.00;93232.45;1856030;77;21135;-84
2021/06/16 02:58:20;;;;;;;6.00;3.30;;;;;;;13.23;99.97;93233.00;1855367;77;20926;-81
2021/06/16 03:00:56;;;;;;;6.45;3.08;;;;;;;13.23;99.80;93234.36;1817957;77;21283;-81
2021/06/16 03:03:23;;;;;;;3.45;3.22;;;;;;;13.25;99.46;93238.83;1856389;77;21164;-82
2021/06/16 03:05:52;;;;;;;6.37;3.37;;;;;;;13.24;99.20;93237.86;1855264;77;21072;-76
2021/06/16 03:08:20;;;;;;;13.22;3.85;;;;;;;13.22;99.37;93242.95;1839607;76;21381;-81
2021/06/16 03:10:47;;;;;;;4.65;3.80;;;;;;;13.21;99.40;93240.05;1852876;77;21112;-80
2021/06/16 03:13:13;;;;;;;7.22;3.50;;;;;;;13.20;99.75;93236.55;1852792;77;21096;-79
2021/06/16 03:15:43;;;;;;;3.90;3.60;;;;;;;13.25;100.00;93237.46;1845468;77;21021;-82
2021/06/16 03:18:09;;;;;;;4.87;3.77;;;;;;;13.31;99.95;93233.64;1810493;77;21392;-85
2021/06/16 03:20:36;;;;;;;3.27;3.00;;;;;;;13.36;99.74;93231.82;1854853;77;21058;-80
2021/06/16 03:23:03;;;;;;;3.92;3.05;;;;;;;13.37;99.46;93233.36;1854678;76;21028;-79
2021/06/16 03:25:30;;;;;;;6.28;4.37;;;;;;;13.33;99.41;93234.78;1835640;77;21068;-81
2021/06/16 03:27:56;;;;;;;7.08;5.20;;;;;;;13.29;99.58;93228.61;1831765;77;21059;-80
2021/06/16 03:30:23;;;;;;;10.50;4.62;;;;;;;13.27;98.95;93232.34;1852107;77;21022;-82
2021/06/16 03:32:52;;;;;;;4.40;3.95;;;;;;;13.23;98.35;93236.30;1819509;78;21122;-85
2021/06/16 03:35:19;;;;;;;4.95;4.45;;;;;;;13.13;98.45;93228.48;1810379;78;21050;-84
2021/06/16 03:37:46;;;;;;;7.12;4.08;;;;;;;13.06;98.70;93223.91;1817568;78;21002;-81
2021/06/16 03:40:13;;;;;;;4.78;3.40;;;;;;;13.06;98.96;93236.19;1815777;78;21015;-83
2021/06/16 03:42:40;;;;;;;5.30;4.03;;;;;;;13.05;99.01;93233.85;1785760;78;20958;-84
2021/06/16 03:45:08;;;;;;;6.22;3.33;;;;;;;13.04;99.27;93232.31;1785889;78;21736;-81
2021/06/16 03:47:40;;;;;;;5.33;3.27;;;;;;;13.06;99.13;93239.52;1822695;78;21045;-83
2021/06/16 03:50:08;;;;;;;6.03;3.17;;;;;;;13.01;98.81;93234.50;1821387;78;21045;-83
2021/06/16 03:52:37;;;;;;;5.05;3.15;;;;;;;12.88;98.75;93239.19;1814439;77;21570;-78
2021/06/16 03:55:04;;;;;;;5.65;3.05;;;;;;;12.82;99.24;93239.47;1811791;77;21033;-81
2021/06/16 03:57:32;;;;;;;3.55;2.77;;;;;;;12.78;99.11;93241.48;1819130;78;21149;-80
2021/06/16 04:00:01;;;;;;;6.92;3.47;;;;;;;12.72;99.50;93239.06;1822457;78;21045;-82
2021/06/16 04:02:28;;;;;;;3.72;2.75;;;;;;;12.71;100.00;93241.59;1812720;78;21017;-80
2021/06/16 04:04:54;;;;;;;6.22;2.65;;;;;;;12.78;99.95;93240.12;1821918;78;21033;-82
2021/06/16 04:07:21;;;;;;;3.45;3.15;;;;;;;12.82;99.70;93247.66;1822005;78;21570;-84
2021/06/16 04:09:52;;;;;;;4.22;2.75;;;;;;;12.84;99.44;93247.26;1820226;78;21133;-81
2021/06/16 04:12:19;;;;;;;6.25;3.22;;;;;;;12.81;99.02;93242.63;1809101;79;21508;-81
2021/06/16 04:14:46;;;;;;;4.87;3.00;;;;;;;12.73;98.56;93237.09;1816035;78;21090;-80
2021/06/16 04:17:17;;;;;;;3.27;2.65;;;;;;;12.67;98.91;93231.92;1809228;78;21022;-81
2021/06/16 04:19:45;;;;;;;4.45;2.55;;;;;;;12.62;98.96;93238.62;1819127;78;21096;-80
2021/06/16 04:22:12;;;;;;;3.77;2.60;;;;;;;12.67;99.42;93236.01;1820279;78;21097;-82
2021/06/16 04:24:39;;;;;;;3.67;3.37;;;;;;;12.75;99.49;93240.97;1815096;77;21014;-81
2021/06/16 04:27:07;;;;;;;3.60;2.75;;;;;;;12.81;99.35;93244.75;1863290;77;21041;-80
2021/06/16 04:29:33;;;;;;;7.20;3.58;;;;;;;12.84;99.28;93251.35;1790537;78;21095;-82
2021/06/16 04:32:01;;;;;;;3.77;2.90;;;;;;;12.84;99.53;93252.12;1822145;78;21542;-79
2021/06/16 04:34:29;;;;;;;5.60;3.67;;;;;;;12.86;99.57;93248.40;1821543;78;21080;-84
2021/06/16 04:36:55;;;;;;;6.95;3.40;;;;;;;12.87;99.86;93249.94;1821940;78;21157;-81
2021/06/16 04:39:25;;;;;;;3.37;3.08;;;;;;;12.91;99.96;93247.75;1820515;78;21018;-79
2021/06/16 04:41:52;;;;;;;6.42;4.92;;;;;;;12.91;100.00;93247.16;1853590;77;21037;-80
2021/06/16 04:44:18;;;;;;;8.73;5.00;;;;;;;12.95;99.78;93251.19;1829276;77;21452;-82
2021/06/16 04:46:44;;;;;;;6.40;4.45;;;;;;;12.96;99.70;93247.27;1835786;77;21741;-80
2021/06/16 04:49:11;;;;;;;4.85;3.60;;;;;;;13.02;100.00;93242.89;1845637;77;21340;-81
2021/06/16 04:51:37;;;;;;;4.15;3.60;;;;;;;13.15;100.00;93245.20;1819273;77;21093;-81
2021/06/16 04:54:10;;;;;;;5.72;3.20;;;;;;;13.33;100.00;93245.70;1855910;77;22070;-80
2021/06/16 04:56:32;;;;;;;3.83;3.50;;;;;;;13.55;100.00;93243.38;1817208;77;21056;-82
2021/06/16 04:58:58;;;;;;;7.95;2.90;;;;;;;13.87;100.00;93238.49;1855757;77;21116;-82
2021/06/16 05:01:25;;;;;;;6.15;2.80;;;;;;;14.33;99.36;93243.05;1845487;77;21578;-84
2021/06/16 05:03:56;;;;;;;2.90;2.60;;;;;;;14.93;97.09;93238.23;1854346;77;21014;-82
2021/06/16 05:06:24;;;;;;;3.55;2.47;;;;;;;15.45;94.20;93239.30;1853743;77;21048;-81
2021/06/16 05:08:51;;;;;;;3.33;2.45;;;;;;;15.79;91.28;93251.17;1854740;77;20958;-83
2021/06/16 05:11:17;;;;;;;3.12;2.30;;;;;;;16.02;89.27;93251.53;1853493;77;21114;-82
2021/06/16 05:13:44;;;;;;;3.05;2.70;;;;;;;16.32;87.67;93246.19;1854411;77;21013;-82
2021/06/16 05:16:11;;;;;;;3.92;2.40;;;;;;;16.73;85.21;93250.89;1837718;76;21056;-80
2021/06/16 05:18:45;;;;;;;2.98;2.45;;;;;;;17.16;83.27;93252.34;1820906;77;21088;-81
2021/06/16 05:21:11;;;;;;;3.10;2.50;;;;;;;17.51;80.92;93246.89;1821001;78;21072;-80
2021/06/16 05:23:38;;;;;;;3.50;2.80;;;;;;;17.65;78.81;93247.03;1811926;78;21166;-82
2021/06/16 05:26:05;;;;;;;3.22;2.70;;;;;;;17.59;73.81;93249.56;1839121;77;21578;-79
2021/06/16 05:28:32;;;;;;;4.53;2.75;;;;;;;17.57;71.98;93251.24;1844368;77;21082;-84
2021/06/16 05:30:59;;;;;;;4.55;3.22;;;;;;;17.56;70.05;93249.07;1806743;78;21037;-79
2021/06/16 05:33:26;;;;;;;4.85;2.85;;;;;;;17.58;68.16;93245.28;1810921;78;21049;-82
2021/06/16 05:35:53;;;;;;;5.33;3.00;;;;;;;17.72;68.05;93248.17;1784890;78;21126;-81
2021/06/16 05:38:22;;;;;;;6.25;3.08;;;;;;;17.82;66.19;93251.17;1786181;78;20946;-80
2021/06/16 05:40:50;;;;;;;5.00;3.27;;;;;;;17.96;68.04;93257.56;1819997;78;21555;-81
2021/06/16 05:43:16;;;;;;;5.15;3.35;;;;;;;17.99;65.01;93257.29;1826164;77;21179;-81
2021/06/16 05:45:44;;;;;;;5.03;2.65;;;;;;;17.89;65.79;93260.56;1828240;77;21620;-79
2021/06/16 05:48:11;;;;;;;4.15;2.77;;;;;;;17.81;65.73;93253.77;1830228;77;21075;-79
2021/06/16 05:50:41;;;;;;;3.92;3.10;;;;;;;17.80;64.21;93256.36;1835332;77;21053;-79
2021/06/16 05:53:15;;;;;;;5.75;2.80;;;;;;;17.83;64.99;93252.73;1819577;77;21050;-82
2021/06/16 05:55:53;;;;;;;3.80;2.50;;;;;;;17.90;64.99;93257.20;1821908;77;21654;-80
2021/06/16 05:58:17;;;;;;;2.52;2.27;;;;;;;18.03;65.44;93257.17;1756594;79;21088;-82
2021/06/16 06:00:44;;;;;;;3.65;2.08;;;;;;;18.14;64.54;93260.31;1789059;79;21079;-80
2021/06/16 06:03:10;;;;;;;4.97;2.85;;;;;;;18.24;64.65;93252.30;1806256;77;21052;-78
2021/06/16 06:05:36;;;;;;;4.25;2.67;;;;;;;18.29;62.48;93260.58;1792478;77;21748;-81
2021/06/16 06:08:03;;;;;;;3.87;3.22;;;;;;;18.17;61.43;93269.82;1806274;77;21037;-80
2021/06/16 06:10:30;;;;;;;4.67;2.55;;;;;;;17.89;61.13;93268.05;1805703;77;21077;-80
2021/06/16 06:12:56;;;;;;;4.20;2.50;;;;;;;17.60;61.69;93273.12;1752297;79;21815;-81
2021/06/16 06:15:23;;;;;;;4.40;2.50;;;;;;;17.40;63.03;93271.98;1802020;78;21131;-81
2021/06/16 06:17:50;;;;;;;2.67;2.08;;;;;;;17.28;64.85;93270.63;1803074;78;21116;-83
2021/06/16 06:20:17;;;;;;;3.67;2.10;;;;;;;17.32;65.93;93276.17;1819907;77;21033;-81
2021/06/16 06:22:44;;;;;;;3.85;2.27;;;;;;;17.44;66.17;93274.00;1801966;75;21028;-81
2021/06/16 06:25:11;;;;;;;5.87;2.72;;;;;;;17.58;66.30;93267.89;1826046;77;22169;-85
2021/06/16 06:27:38;;;;;;;2.87;2.37;;;;;;;17.68;65.40;93266.77;1824018;77;21079;-84
2021/06/16 06:30:06;;;;;;;2.30;2.10;;;;;;;17.64;64.90;93269.64;1814727;77;21129;-86
2021/06/16 06:32:33;;;;;;;4.55;2.67;;;;;;;17.60;65.38;93272.33;1832001;76;21030;-82
2021/06/16 06:35:02;;;;;;;3.60;2.42;;;;;;;17.62;64.99;93274.80;1772758;78;21152;-84
2021/06/16 06:37:28;;;;;;;3.85;2.47;;;;;;;17.65;64.17;93267.66;1815346;78;21245;-81
2021/06/16 06:39:56;;;;;;;5.33;3.80;;;;;;;17.62;63.33;93273.42;1819761;78;21602;-89
2021/06/16 06:42:22;;;;;;;3.25;2.90;;;;;;;17.59;64.11;93267.44;1790817;78;20916;-85
2021/06/16 06:44:49;;;;;;;2.83;2.40;;;;;;;17.59;64.24;93274.30;1787498;77;21103;-87
2021/06/16 06:47:18;;;;;;;3.85;2.70;;;;;;;17.70;65.04;93272.58;1799712;77;21081;-84
2021/06/16 06:49:44;;;;;;;2.75;2.47;;;;;;;17.81;64.04;93263.40;1808994;77;21081;-88
2021/06/16 06:52:15;;;;;;;2.55;2.35;;;;;;;17.85;64.60;93264.66;1823227;77;21066;-82
2021/06/16 06:54:41;;;;;;;2.98;2.20;;;;;;;17.90;62.34;93264.87;1825894;77;21093;-83
2021/06/16 06:57:08;;;;;;;3.40;2.42;;;;;;;17.93;62.48;93270.83;1827563;77;21053;-82
2021/06/16 06:59:35;;;;;;;8.08;3.33;;;;;;;17.93;62.27;93263.95;1797136;77;21022;-84
2021/06/16 07:02:02;;;;;;;2.40;2.20;;;;;;;17.94;62.51;93264.72;1781496;77;21069;-87
2021/06/16 07:04:28;;;;;;;2.67;2.45;;;;;;;17.92;61.38;93261.05;1831688;77;21122;-88
2021/06/16 07:06:57;;;;;;;4.85;2.25;;;;;;;17.94;61.43;93261.97;1739261;80;21048;-84
2021/06/16 07:09:25;;;;;;;2.72;2.35;;;;;;;17.95;60.31;93267.65;1746996;80;21103;-82
2021/06/16 07:11:52;;;;;;;2.87;2.47;;;;;;;17.86;59.87;93267.55;1827381;77;21024;-79
2021/06/16 07:14:19;;;;;;;4.42;2.55;;;;;;;17.77;59.83;93266.11;1796661;77;21102;-82
2021/06/16 07:16:45;;;;;;;3.47;2.47;;;;;;;17.68;60.43;93268.91;1801637;78;21318;-84
2021/06/16 07:19:15;;;;;;;4.83;2.65;;;;;;;17.66;61.28;93265.06;1785805;79;21045;-80
2021/06/16 07:21:43;;;;;;;2.87;2.50;;;;;;;17.59;59.10;93271.56;1800424;77;21030;-79
2021/06/16 07:24:15;;;;;;;7.65;2.70;;;;;;;17.55;57.42;93277.02;1751302;79;21156;-79
2021/06/16 07:26:45;;;;;;;6.72;3.02;;;;;;;17.51;58.44;93277.13;1808689;77;21095;-83
2021/06/16 07:29:13;;;;;;;3.98;2.85;;;;;;;17.46;59.07;93279.84;1729568;79;21425;-83
2021/06/16 07:31:41;;;;;;;6.05;4.03;;;;;;;17.40;60.12;93278.84;1808620;76;21054;-81
2021/06/16 07:34:07;;;;;;;4.95;3.42;;;;;;;17.48;59.26;93281.52;1737323;81;21055;-77
2021/06/16 07:36:34;;;;;;;8.68;5.08;;;;;;;17.56;58.34;93281.30;1780308;79;21560;-78
2021/06/16 07:39:00;;;;;;;3.12;2.77;;;;;;;17.53;56.86;93270.59;1754997;76;21590;-82
2021/06/16 07:41:27;;;;;;;5.17;3.92;;;;;;;17.57;57.95;93275.38;1775704;79;21084;-82
2021/06/16 07:43:54;;;;;;;3.47;2.83;;;;;;;17.73;57.55;93275.22;1828869;77;21049;-83
2021/06/16 07:46:22;;;;;;;5.45;2.67;;;;;;;17.91;57.35;93277.40;1727308;81;21128;-83
2021/06/16 07:48:50;;;;;;;3.40;3.10;;;;;;;18.11;57.46;93280.46;1775518;80;21559;-85
2021/06/16 07:51:18;;;;;;;3.35;3.00;;;;;;;18.24;55.07;93276.27;1786575;79;21572;-82
2021/06/16 07:53:44;;;;;;;3.45;2.70;;;;;;;18.25;54.44;93286.84;1742322;80;21356;-83
2021/06/16 07:56:11;;;;;;;3.85;2.40;;;;;;;18.19;54.28;93287.25;1772495;80;21941;-85
2021/06/16 07:58:48;;;;;;;2.85;2.60;;;;;;;18.13;54.69;93287.67;1763854;79;21105;-86
2021/06/16 08:01:17;;;;;;;3.27;2.50;;;;;;;18.10;54.57;93276.94;1747849;80;21066;-86
2021/06/16 08:03:43;;;;;;;6.25;3.50;;;;;;;18.06;54.36;93290.06;1740472;80;21101;-85
2021/06/16 08:06:17;;;;;;;3.00;2.70;;;;;;;18.02;54.74;93286.66;1745502;79;21102;-82
2021/06/16 08:08:53;;;;;;;2.62;2.22;;;;;;;18.00;53.66;93296.56;1791764;79;21022;-91
2021/06/16 08:11:24;;;;;;;5.67;2.65;;;;;;;17.90;55.14;93299.25;1778161;79;21026;-89
2021/06/16 08:13:52;;;;;;;7.55;2.02;;;;;;;17.77;54.39;93305.38;1773051;80;21105;-79
2021/06/16 08:16:23;;;;;;;2.87;1.98;;;;;;;17.64;53.88;93301.26;1772393;80;21169;-90
2021/06/16 08:18:50;;;;;;;3.85;1.98;;;;;;;17.56;55.26;93308.17;1784174;78;21088;-80
2021/06/16 08:21:20;;;;;;;2.80;1.75;;;;;;;17.51;55.70;93306.00;1772951;79;21027;-86
2021/06/16 08:23:51;;;;;;;4.53;2.62;;;;;;;17.54;56.81;93308.48;1771625;79;21050;-89
2021/06/16 08:26:20;;;;;;;4.00;2.85;;;;;;;17.54;56.47;93311.23;1811965;75;21013;-82
2021/06/16 08:28:49;;;;;;;3.40;3.05;;;;;;;17.50;54.51;93307.22;1805681;77;21097;-82
2021/06/16 08:31:18;;;;;;;2.47;2.30;;;;;;;17.44;54.55;93311.11;1794105;78;20952;-84
2021/06/16 08:33:45;;;;;;;6.85;3.30;;;;;;;17.39;56.08;93318.55;1812624;77;21096;-83
2021/06/16 08:36:12;;;;;;;9.93;3.55;;;;;;;17.40;56.78;93315.19;1808992;78;21088;-87
2021/06/16 08:38:43;;;;;;;2.60;2.40;;;;;;;17.45;56.82;93316.00;1809189;77;20970;-87
2021/06/16 08:41:10;;;;;;;2.40;2.20;;;;;;;17.52;58.02;93315.01;1791910;79;21115;-82
2021/06/16 08:43:42;;;;;;;4.85;3.37;;;;;;;17.54;57.89;93327.11;1796449;78;21162;-82
2021/06/16 08:46:13;;;;;;;4.28;3.30;;;;;;;17.53;58.16;93324.20;1786490;79;21014;-82
2021/06/16 08:48:42;;;;;;;4.00;2.35;;;;;;;17.50;59.07;93322.94;1793287;79;21043;-81
2021/06/16 08:51:12;;;;;;;4.62;2.95;;;;;;;17.47;57.77;93337.72;1780994;78;21081;-80
2021/06/16 08:53:38;;;;;;;2.47;2.27;;;;;;;17.40;58.63;93330.30;1799298;77;21432;-82
2021/06/16 08:56:05;;;;;;;4.95;2.55;;;;;;;17.35;56.38;93339.87;1772214;78;21049;-83
2021/06/16 08:58:36;;;;;;;13.05;5.95;;;;;;;17.30;55.81;93345.93;1770162;78;21053;-86
2021/06/16 09:01:13;;;;;;;12.58;6.30;;;;;;;17.26;55.87;93351.34;1814653;77;21089;-85
2021/06/16 09:03:45;;;;;;;4.90;3.50;;;;;;;17.21;56.24;93355.42;1798746;78;21081;-84
2021/06/16 09:06:15;;;;;;;3.10;2.47;;;;;;;17.20;55.97;93346.41;1821214;77;21082;-86
2021/06/16 09:09:05;;;;;;;7.80;3.10;;;;;;;17.22;55.89;93348.09;1795780;78;21096;-83
2021/06/16 09:11:47;;;;;;;3.60;2.10;;;;;;;17.31;57.31;93342.58;1812342;77;20981;-84
2021/06/16 09:14:23;;;;;;;4.40;2.05;;;;;;;17.47;55.19;93345.20;1811640;76;21114;-83
2021/06/16 09:16:53;;;;;;;1.82;1.72;;;;;;;17.63;55.32;93344.30;1736758;80;21056;-85
2021/06/16 09:19:23;;;;;;;2.17;2.00;;;;;;;17.77;55.12;93348.00;1799229;77;21097;-85
2021/06/16 09:22:04;;;;;;;2.60;1.57;;;;;;;17.90;55.89;93356.22;1827420;77;22093;-84
2021/06/16 09:24:56;;;;;;;9.95;6.55;;;;;;;17.99;56.18;93361.06;1782612;77;21101;-84
2021/06/16 09:27:47;;;;;;;3.50;2.40;;;;;;;18.03;55.81;93363.09;1820837;77;21073;-83
2021/06/16 09:30:26;;;;;;;2.27;2.00;;;;;;;18.10;55.93;93355.36;1739856;77;21092;-86
2021/06/16 09:32:58;;;;;;;4.05;2.80;;;;;;;18.16;54.73;93356.92;1782440;78;21397;-81
2021/06/16 09:35:29;;;;;;;7.70;5.55;;;;;;;18.20;55.36;93360.33;1749757;79;21081;-80
2021/06/16 09:37:59;;;;;;;3.95;2.17;;;;;;;18.18;52.94;93359.41;1773611;78;21106;-81
2021/06/16 09:40:32;;;;;;;3.25;2.42;;;;;;;18.17;53.65;93360.63;1777534;78;21101;-82
2021/06/16 09:43:10;;;;;;;3.65;2.00;;;;;;;18.20;54.66;93354.23;1727082;80;21046;-81
2021/06/16 09:45:38;;;;;;;2.58;1.70;;;;;;;18.29;54.48;93349.41;1805153;76;21030;-83
2021/06/16 09:48:25;;;;;;;1.45;1.35;;;;;;;18.35;54.11;93351.73;1843590;76;21044;-83
2021/06/16 09:51:16;;;;;;;2.10;2.00;;;;;;;18.35;54.50;93353.11;1836812;75;21041;-83
2021/06/16 09:54:16;;;;;;;5.08;2.50;;;;;;;18.31;55.37;93356.59;1828991;76;21057;-85
2021/06/16 09:56:59;;;;;;;3.85;2.35;;;;;;;18.23;55.19;93365.55;1780592;77;21165;-82
2021/06/16 09:59:49;;;;;;;5.92;3.37;;;;;;;18.14;56.40;93371.75;1813582;75;21104;-82
2021/06/16 10:02:21;;;;;;;5.78;3.50;;;;;;;18.09;56.48;93372.30;1840441;77;21528;-84
2021/06/16 10:04:54;;;;;;;5.53;3.25;;;;;;;18.01;56.61;93376.50;1777340;79;21085;-84
2021/06/16 10:07:26;;;;;;;6.22;3.98;;;;;;;17.95;58.46;93379.05;1813676;77;21100;-84
2021/06/16 10:10:06;;;;;;;7.60;4.47;;;;;;;17.89;58.63;93379.44;1806898;77;21097;-84
2021/06/16 10:12:37;;;;;;;4.25;3.00;;;;;;;17.85;59.92;93371.91;1798357;77;21628;-86
2021/06/16 10:15:08;;;;;;;4.75;2.83;;;;;;;17.84;58.63;93384.14;1762638;78;21610;-82
2021/06/16 10:17:34;;;;;;;5.65;2.60;;;;;;;17.82;59.10;93375.55;1801836;77;21642;-81
2021/06/16 10:20:01;;;;;;;5.20;2.45;;;;;;;17.83;60.30;93372.98;1844997;77;21049;-87
2021/06/16 10:22:28;;;;;;;4.42;3.00;;;;;;;17.88;59.83;93364.16;1819456;76;21078;-83
2021/06/16 10:24:56;;;;;;;2.60;2.40;;;;;;;17.94;60.02;93369.25;1822890;77;21120;-81
2021/06/16 10:27:30;;;;;;;3.77;2.65;;;;;;;17.95;60.00;93365.30;1799672;77;21057;-82
2021/06/16 10:30:15;;;;;;;9.48;4.10;;;;;;;17.91;59.32;93373.67;1813865;77;21217;-81
2021/06/16 10:32:44;;;;;;;4.75;2.90;;;;;;;17.86;58.93;93365.96;1811290;78;21086;-79
2021/06/16 10:35:15;;;;;;;6.55;3.67;;;;;;;17.89;60.04;93364.31;1796953;79;21037;-80
2021/06/16 10:37:46;;;;;;;7.78;2.80;;;;;;;17.95;60.05;93363.31;1786264;79;21093;-84
2021/06/16 10:40:26;;;;;;;6.35;2.22;;;;;;;18.12;61.83;93359.80;1805830;77;21037;-80
2021/06/16 10:43:05;;;;;;;2.05;1.82;;;;;;;18.27;58.78;93368.95;1825470;77;21215;-77
2021/06/16 10:45:43;;;;;;;3.67;2.52;;;;;;;18.25;53.87;93370.02;1808744;77;21053;-86
2021/06/16 10:48:10;;;;;;;3.00;2.00;;;;;;;18.16;53.32;93375.58;1810136;77;21105;-82
2021/06/16 10:50:56;;;;;;;2.22;2.02;;;;;;;18.12;54.68;93372.17;1830300;77;22183;-80
2021/06/16 10:53:26;;;;;;;2.15;1.67;;;;;;;18.17;54.37;93371.63;1806112;78;21037;-83
2021/06/16 10:55:59;;;;;;;2.85;1.40;;;;;;;18.35;56.14;93361.98;1821948;77;21001;-81
2021/06/16 10:58:33;;;;;;;2.95;2.50;;;;;;;18.48;56.31;93365.47;1793562;77;21066;-79
2021/06/16 11:01:17;;;;;;;2.67;1.85;;;;;;;18.61;55.75;93375.80;1794927;76;21972;-80
2021/06/16 11:03:56;;;;;;;2.83;2.30;;;;;;;18.73;50.79;93370.72;1790628;76;21605;-85
2021/06/16 11:06:37;;;;;;;2.77;1.60;;;;;;;18.79;53.59;93363.42;1774871;78;21062;-83
2021/06/16 11:09:10;;;;;;;2.30;1.62;;;;;;;18.84;52.45;93358.12;1749202;80;21231;-80
2021/06/16 11:14:37;;;;;;;1.57;1.47;;;;;;;19.01;53.36;93355.16;1817759;77;21174;-80
2021/06/16 11:17:07;;;;;;;3.27;1.60;;;;;;;19.06;51.98;93345.67;1780073;79;21386;-81
2021/06/16 11:19:39;;;;;;;1.57;1.47;;;;;;;19.06;53.29;93355.32;1777584;79;21349;-82
2021/06/16 11:22:18;;;;;;;5.03;1.82;;;;;;;19.01;51.35;93360.66;1816242;77;21709;-86
2021/06/16 11:25:28;;;;;;;2.30;1.70;;;;;;;18.93;52.42;93360.16;1746185;79;21051;-89
2021/06/16 11:28:16;;;;;;;1.90;1.80;;;;;;;18.91;52.65;93348.80;1773658;79;21339;-82
2021/06/16 11:30:59;;;;;;;2.05;1.30;;;;;;;19.01;55.46;93349.03;1745638;77;22079;-86
2021/06/16 11:33:35;;;;;;;2.62;1.57;;;;;;;19.13;54.04;93353.68;1777631;78;21025;-81
2021/06/16 11:39:27;;;;;;;1.77;1.67;;;;;;;19.31;53.81;93332.34;1787909;79;21063;-84
2021/06/16 11:41:59;;;;;;;3.58;1.77;;;;;;;19.34;51.38;93330.67;1767957;79;21023;-85
2021/06/16 11:44:30;;;;;;;2.22;1.70;;;;;;;19.29;53.33;93327.88;1754637;80;21220;-83
2021/06/16 11:46:58;;;;;;;2.40;1.60;;;;;;;19.33;53.31;93336.00;1767016;79;21089;-81
2021/06/16 11:49:27;;;;;;;2.95;2.40;;;;;;;19.39;52.74;93338.34;1775042;78;21058;-81
2021/06/16 11:51:58;;;;;;;2.90;2.12;;;;;;;19.40;52.48;93340.63;1804850;77;21025;-81